sensor_id;sensor_type;location;lat;lon;timestamp;temperature;humidity
9095;DHT22;4583;49.796;9.902;2022-09-29T00:08:26;10.00;95.80
9095;DHT22;4583;49.796;9.902;2022-09-29T00:18:30;9.90;96.00
9095;DHT22;4583;49.796;9.902;2022-09-29T00:28:33;9.70;96.00
9095;DHT22;4583;49.796;9.902;2022-09-29T00:38:35;9.70;96.40
9095;DHT22;4583;49.796;9.902;2022-09-29T00:48:37;9.70;96.30
9095;DHT22;4583;49.796;9.902;2022-09-29T00:58:47;9.60;96.50
9095;DHT22;4583;49.796;9.902;2022-09-29T01:09:03;9.60;96.50
9095;DHT22;4583;49.796;9.902;2022-09-29T01:29:48;9.60;96.50
9095;DHT22;4583;49.796;9.902;2022-09-29T01:50:01;9.60;96.90
9095;DHT22;4583;49.796;9.902;2022-09-29T02:00:07;9.50;96.70
9095;DHT22;4583;49.796;9.902;2022-09-29T02:10:26;9.50;96.80
9095;DHT22;4583;49.796;9.902;2022-09-29T02:20:30;9.50;96.90
9095;DHT22;4583;49.796;9.902;2022-09-29T02:30:33;9.40;96.90
9095;DHT22;4583;49.796;9.902;2022-09-29T02:40:56;9.30;97.20
9095;DHT22;4583;49.796;9.902;2022-09-29T02:51:12;9.50;97.10
9095;DHT22;4583;49.796;9.902;2022-09-29T03:01:16;9.50;97.00
9095;DHT22;4583;49.796;9.902;2022-09-29T03:11:18;9.60;97.40
9095;DHT22;4583;49.796;9.902;2022-09-29T03:21:19;9.60;97.30
9095;DHT22;4583;49.796;9.902;2022-09-29T03:31:21;9.60;97.10
9095;DHT22;4583;49.796;9.902;2022-09-29T03:41:23;9.50;97.30
9095;DHT22;4583;49.796;9.902;2022-09-29T03:51:24;9.40;97.40
9095;DHT22;4583;49.796;9.902;2022-09-29T04:01:26;9.40;97.20
9095;DHT22;4583;49.796;9.902;2022-09-29T04:11:28;9.40;97.30
9095;DHT22;4583;49.796;9.902;2022-09-29T04:21:29;9.40;97.60
9095;DHT22;4583;49.796;9.902;2022-09-29T04:31:31;9.50;97.20
9095;DHT22;4583;49.796;9.902;2022-09-29T04:41:33;9.40;97.20
9095;DHT22;4583;49.796;9.902;2022-09-29T04:51:36;9.50;97.40
9095;DHT22;4583;49.796;9.902;2022-09-29T05:01:38;9.50;97.60
9095;DHT22;4583;49.796;9.902;2022-09-29T05:11:40;9.50;97.70
9095;DHT22;4583;49.796;9.902;2022-09-29T05:21:41;9.40;97.50
9095;DHT22;4583;49.796;9.902;2022-09-29T05:31:43;9.40;97.50
9095;DHT22;4583;49.796;9.902;2022-09-29T05:41:47;9.40;97.50
9095;DHT22;4583;49.796;9.902;2022-09-29T05:51:48;9.30;97.30
9095;DHT22;4583;49.796;9.902;2022-09-29T06:01:51;9.40;97.60
9095;DHT22;4583;49.796;9.902;2022-09-29T06:11:52;9.50;97.50
9095;DHT22;4583;49.796;9.902;2022-09-29T06:21:54;9.50;97.80
9095;DHT22;4583;49.796;9.902;2022-09-29T06:31:56;9.60;98.00
9095;DHT22;4583;49.796;9.902;2022-09-29T06:41:58;9.80;98.10
9095;DHT22;4583;49.796;9.902;2022-09-29T06:52:00;9.80;98.30
9095;DHT22;4583;49.796;9.902;2022-09-29T07:02:17;9.90;98.30
9095;DHT22;4583;49.796;9.902;2022-09-29T07:12:19;10.20;98.00
9095;DHT22;4583;49.796;9.902;2022-09-29T07:22:22;10.30;98.40
9095;DHT22;4583;49.796;9.902;2022-09-29T07:32:24;10.50;98.50
9095;DHT22;4583;49.796;9.902;2022-09-29T07:42:29;10.80;98.20
9095;DHT22;4583;49.796;9.902;2022-09-29T07:52:30;10.90;98.40
9095;DHT22;4583;49.796;9.902;2022-09-29T08:02:32;11.00;97.80
9095;DHT22;4583;49.796;9.902;2022-09-29T08:12:34;11.10;97.90
9095;DHT22;4583;49.796;9.902;2022-09-29T08:22:44;11.20;98.10
9095;DHT22;4583;49.796;9.902;2022-09-29T08:32:51;11.40;97.60
9095;DHT22;4583;49.796;9.902;2022-09-29T08:43:00;11.70;97.60
9095;DHT22;4583;49.796;9.902;2022-09-29T08:53:11;11.70;97.80
9095;DHT22;4583;49.796;9.902;2022-09-29T09:03:41;11.90;97.30
9095;DHT22;4583;49.796;9.902;2022-09-29T09:13:59;12.30;97.20
9095;DHT22;4583;49.796;9.902;2022-09-29T09:24:15;12.60;96.10
9095;DHT22;4583;49.796;9.902;2022-09-29T09:34:30;12.60;96.00
9095;DHT22;4583;49.796;9.902;2022-09-29T09:44:48;12.80;95.70
9095;DHT22;4583;49.796;9.902;2022-09-29T09:54:53;12.80;95.90
9095;DHT22;4583;49.796;9.902;2022-09-29T10:04:56;13.20;95.70
9095;DHT22;4583;49.796;9.902;2022-09-29T10:15:14;13.70;94.60
9095;DHT22;4583;49.796;9.902;2022-09-29T10:25:19;14.00;94.10
9095;DHT22;4583;49.796;9.902;2022-09-29T10:35:27;14.10;94.30
9095;DHT22;4583;49.796;9.902;2022-09-29T10:45:46;14.30;94.00
9095;DHT22;4583;49.796;9.902;2022-09-29T10:55:52;14.20;93.70
9095;DHT22;4583;49.796;9.902;2022-09-29T11:05:59;14.10;93.40
9095;DHT22;4583;49.796;9.902;2022-09-29T11:16:38;13.80;92.90
9095;DHT22;4583;49.796;9.902;2022-09-29T11:27:22;13.80;93.10
9095;DHT22;4583;49.796;9.902;2022-09-29T11:58:26;14.50;92.30
9095;DHT22;4583;49.796;9.902;2022-09-29T12:19:00;15.10;90.60
9095;DHT22;4583;49.796;9.902;2022-09-29T12:29:28;15.40;90.30
9095;DHT22;4583;49.796;9.902;2022-09-29T13:20:35;15.60;84.00
9095;DHT22;4583;49.796;9.902;2022-09-29T13:30:40;15.40;83.50
9095;DHT22;4583;49.796;9.902;2022-09-29T13:51:25;14.90;84.10
9095;DHT22;4583;49.796;9.902;2022-09-29T14:01:38;14.20;88.30
9095;DHT22;4583;49.796;9.902;2022-09-29T14:11:49;14.10;88.60
9095;DHT22;4583;49.796;9.902;2022-09-29T14:21:53;13.80;90.30
9095;DHT22;4583;49.796;9.902;2022-09-29T14:31:58;13.60;91.20
9095;DHT22;4583;49.796;9.902;2022-09-29T14:42:00;13.50;92.10
9095;DHT22;4583;49.796;9.902;2022-09-29T15:02:26;13.60;93.20
9095;DHT22;4583;49.796;9.902;2022-09-29T15:12:31;13.60;93.60
9095;DHT22;4583;49.796;9.902;2022-09-29T15:22:51;13.70;94.20
9095;DHT22;4583;49.796;9.902;2022-09-29T15:43:55;13.70;94.10
9095;DHT22;4583;49.796;9.902;2022-09-29T15:53:57;13.50;93.90
9095;DHT22;4583;49.796;9.902;2022-09-29T16:04:06;13.30;93.70
9095;DHT22;4583;49.796;9.902;2022-09-29T16:14:22;13.30;94.00
9095;DHT22;4583;49.796;9.902;2022-09-29T16:24:30;13.10;94.00
9095;DHT22;4583;49.796;9.902;2022-09-29T16:34:32;13.00;94.10
9095;DHT22;4583;49.796;9.902;2022-09-29T16:44:41;12.90;94.30
9095;DHT22;4583;49.796;9.902;2022-09-29T16:54:45;12.70;94.60
9095;DHT22;4583;49.796;9.902;2022-09-29T17:04:49;12.70;94.90
9095;DHT22;4583;49.796;9.902;2022-09-29T17:14:51;12.60;94.80
9095;DHT22;4583;49.796;9.902;2022-09-29T17:24:53;12.50;95.10
9095;DHT22;4583;49.796;9.902;2022-09-29T17:34:55;12.40;95.60
9095;DHT22;4583;49.796;9.902;2022-09-29T17:44:57;12.20;95.70
9095;DHT22;4583;49.796;9.902;2022-09-29T17:54:59;12.10;96.20
9095;DHT22;4583;49.796;9.902;2022-09-29T18:05:02;11.90;96.30
9095;DHT22;4583;49.796;9.902;2022-09-29T18:15:04;11.80;96.40
9095;DHT22;4583;49.796;9.902;2022-09-29T18:25:06;11.80;96.90
9095;DHT22;4583;49.796;9.902;2022-09-29T18:35:13;11.60;97.40
9095;DHT22;4583;49.796;9.902;2022-09-29T18:45:17;11.50;97.20
9095;DHT22;4583;49.796;9.902;2022-09-29T18:55:26;11.20;97.10
9095;DHT22;4583;49.796;9.902;2022-09-29T19:05:29;11.10;97.50
9095;DHT22;4583;49.796;9.902;2022-09-29T19:15:32;11.00;97.50
9095;DHT22;4583;49.796;9.902;2022-09-29T19:25:38;11.00;98.30
9095;DHT22;4583;49.796;9.902;2022-09-29T19:35:51;10.80;98.00
9095;DHT22;4583;49.796;9.902;2022-09-29T19:45:54;10.70;97.70
9095;DHT22;4583;49.796;9.902;2022-09-29T19:55:56;10.50;97.90
9095;DHT22;4583;49.796;9.902;2022-09-29T20:06:03;10.50;98.20
9095;DHT22;4583;49.796;9.902;2022-09-29T20:16:06;10.40;98.20
9095;DHT22;4583;49.796;9.902;2022-09-29T20:26:08;10.30;97.90
9095;DHT22;4583;49.796;9.902;2022-09-29T20:36:10;10.30;98.20
9095;DHT22;4583;49.796;9.902;2022-09-29T20:46:12;10.20;98.10
9095;DHT22;4583;49.796;9.902;2022-09-29T20:56:15;10.00;97.30
9095;DHT22;4583;49.796;9.902;2022-09-29T21:06:19;10.30;98.20
9095;DHT22;4583;49.796;9.902;2022-09-29T21:16:21;10.00;98.10
9095;DHT22;4583;49.796;9.902;2022-09-29T21:26:23;9.80;98.60
9095;DHT22;4583;49.796;9.902;2022-09-29T21:36:27;9.70;98.50
9095;DHT22;4583;49.796;9.902;2022-09-29T21:46:31;9.60;98.60
9095;DHT22;4583;49.796;9.902;2022-09-29T21:56:36;9.70;98.70
9095;DHT22;4583;49.796;9.902;2022-09-29T22:06:41;9.30;98.10
9095;DHT22;4583;49.796;9.902;2022-09-29T22:16:45;9.40;98.40
9095;DHT22;4583;49.796;9.902;2022-09-29T22:26:47;9.30;98.20
9095;DHT22;4583;49.796;9.902;2022-09-29T22:36:49;9.20;97.90
9095;DHT22;4583;49.796;9.902;2022-09-29T22:46:51;9.20;97.90
9095;DHT22;4583;49.796;9.902;2022-09-29T22:56:53;9.00;98.00
9095;DHT22;4583;49.796;9.902;2022-09-29T23:06:55;9.00;98.30
9095;DHT22;4583;49.796;9.902;2022-09-29T23:16:57;9.10;98.30
9095;DHT22;4583;49.796;9.902;2022-09-29T23:26:58;9.00;98.20
9095;DHT22;4583;49.796;9.902;2022-09-29T23:37:00;9.10;97.80
9095;DHT22;4583;49.796;9.902;2022-09-29T23:47:02;9.10;98.10
9095;DHT22;4583;49.796;9.902;2022-09-29T23:57:04;9.10;97.80
